createdAt,value
2022-12-25T00:00:41.533Z,101313.91
2022-12-25T00:03:11.546Z,101315.84
2022-12-25T00:05:42.273Z,101319.00
2022-12-25T00:08:11.461Z,101312.97
2022-12-25T00:10:45.485Z,101312.47
2022-12-25T00:13:15.451Z,101317.78
2022-12-25T00:15:54.502Z,101314.63
2022-12-25T00:18:23.801Z,101316.81
2022-12-25T00:21:05.304Z,101315.47
2022-12-25T00:23:35.471Z,101314.03
2022-12-25T00:26:09.778Z,101303.25
2022-12-25T00:28:39.521Z,101310.72
2022-12-25T00:31:48.445Z,101307.09
2022-12-25T00:34:19.500Z,101313.78
2022-12-25T00:36:53.426Z,101317.53
2022-12-25T00:39:23.387Z,101310.13
2022-12-25T00:42:12.817Z,101307.34
2022-12-25T00:44:42.218Z,101317.53
2022-12-25T00:47:15.175Z,101314.25
2022-12-25T00:49:47.795Z,101312.91
2022-12-25T00:52:20.490Z,101317.28
2022-12-25T00:54:50.046Z,101314.72
2022-12-25T00:57:23.050Z,101314.41
2022-12-25T00:59:54.850Z,101325.75
2022-12-25T01:02:23.834Z,101325.00
2022-12-25T01:07:53.743Z,101313.41
2022-12-25T01:10:24.807Z,101315.66
2022-12-25T01:12:52.940Z,101315.59
2022-12-25T01:15:24.981Z,101307.34
2022-12-25T01:17:54.353Z,101307.94
2022-12-25T01:20:22.764Z,101312.19
2022-12-25T01:22:52.943Z,101322.13
2022-12-25T01:25:21.716Z,101319.19
2022-12-25T01:27:52.796Z,101313.97
2022-12-25T01:30:21.784Z,101309.84
2022-12-25T01:32:51.367Z,101313.38
2022-12-25T01:35:23.810Z,101321.06
2022-12-25T01:37:53.717Z,101318.19
2022-12-25T01:40:25.289Z,101314.47
2022-12-25T01:42:54.712Z,101318.56
2022-12-25T01:45:44.260Z,101310.50
2022-12-25T01:48:19.281Z,101307.09
2022-12-25T01:50:56.513Z,101302.75
2022-12-25T01:53:27.132Z,101309.72
2022-12-25T01:56:01.724Z,101306.38
2022-12-25T01:58:33.634Z,101303.72
2022-12-25T02:01:02.444Z,101311.34
2022-12-25T02:03:33.189Z,101310.13
2022-12-25T02:06:04.271Z,101315.34
2022-12-25T02:08:34.670Z,101307.09
2022-12-25T02:11:06.055Z,101307.72
2022-12-25T02:13:34.872Z,101306.63
2022-12-25T02:16:22.444Z,101301.69
2022-12-25T02:18:58.767Z,101303.88
2022-12-25T02:22:03.172Z,101298.19
2022-12-25T02:25:09.550Z,101312.09
2022-12-25T02:28:06.658Z,101311.66
2022-12-25T02:30:43.237Z,101306.38
2022-12-25T02:33:49.310Z,101308.69
2022-12-25T02:36:25.490Z,101312.44
2022-12-25T02:39:20.584Z,101320.69
2022-12-25T02:42:14.396Z,101312.78
2022-12-25T02:45:06.013Z,101303.00
2022-12-25T02:47:56.233Z,101317.25
2022-12-25T02:50:46.203Z,101314.97
2022-12-25T02:53:35.192Z,101315.22
2022-12-25T02:56:23.225Z,101312.56
2022-12-25T02:59:12.218Z,101321.38
2022-12-25T03:02:06.339Z,101319.19
2022-12-25T03:04:56.253Z,101322.59
2022-12-25T03:07:28.494Z,101316.16
2022-12-25T03:10:23.109Z,101319.19
2022-12-25T03:13:15.118Z,101316.03
2022-12-25T03:16:02.295Z,101318.44
2022-12-25T03:18:33.064Z,101322.75
2022-12-25T03:21:22.289Z,101320.81
2022-12-25T03:24:19.549Z,101330.25
2022-12-25T03:26:58.272Z,101327.25
2022-12-25T03:29:51.666Z,101320.56
2022-12-25T03:32:58.892Z,101321.84
2022-12-25T03:35:45.233Z,101319.94
2022-12-25T03:38:53.358Z,101321.34
2022-12-25T03:42:04.508Z,101328.09
2022-12-25T03:45:28.249Z,101324.72
2022-12-25T03:48:16.837Z,101327.88
2022-12-25T03:51:23.612Z,101329.69
2022-12-25T03:54:20.390Z,101336.47
2022-12-25T03:57:13.699Z,101344.34
2022-12-25T04:00:02.305Z,101340.06
2022-12-25T04:02:51.283Z,101342.59
2022-12-25T04:05:39.474Z,101344.66
2022-12-25T04:08:29.220Z,101353.94
2022-12-25T04:11:21.907Z,101351.25
2022-12-25T04:17:03.697Z,101349.28
2022-12-25T04:19:53.691Z,101345.44
2022-12-25T04:22:40.926Z,101352.91
2022-12-25T04:25:34.198Z,101351.63
2022-12-25T04:28:22.215Z,101349.31
2022-12-25T04:31:13.736Z,101351.94
2022-12-25T04:34:02.683Z,101347.88
2022-12-25T04:36:33.045Z,101347.53
2022-12-25T07:51:11.301Z,101453.84
2022-12-25T07:53:40.182Z,101459.84
2022-12-25T07:56:22.923Z,101458.03
2022-12-25T07:59:01.191Z,101464.16
2022-12-25T08:01:30.766Z,101465.38
2022-12-25T08:04:02.999Z,101473.63
2022-12-25T08:06:35.000Z,101474.16
2022-12-25T08:09:09.291Z,101472.66
2022-12-25T08:11:39.433Z,101472.09
2022-12-25T08:14:09.526Z,101477.34
2022-12-25T08:16:41.850Z,101479.00
2022-12-25T08:19:11.485Z,101470.75
2022-12-25T08:21:41.755Z,101485.66
2022-12-25T08:24:12.574Z,101478.41
2022-12-25T08:26:40.296Z,101476.56
2022-12-25T08:29:09.517Z,101475.78
2022-12-25T08:31:45.750Z,101468.75
2022-12-25T08:34:16.460Z,101469.53
2022-12-25T08:36:51.270Z,101458.59
2022-12-25T08:39:22.639Z,101454.81
2022-12-25T08:41:50.986Z,101448.22
2022-12-25T08:44:29.950Z,101450.59
2022-12-25T08:47:01.525Z,101448.28
2022-12-25T08:49:30.223Z,101450.81
2022-12-25T08:51:59.555Z,101456.94
2022-12-25T08:54:28.949Z,101451.88
2022-12-25T08:57:02.598Z,101463.81
2022-12-25T08:59:32.375Z,101464.88
2022-12-25T09:02:03.761Z,101459.25
2022-12-25T09:04:33.048Z,101463.44
2022-12-25T09:07:03.030Z,101466.47
2022-12-25T09:09:33.648Z,101465.56
2022-12-25T09:12:06.318Z,101465.03
2022-12-25T09:14:39.621Z,101462.66
2022-12-25T09:17:09.023Z,101453.94
2022-12-25T09:19:38.042Z,101458.88
2022-12-25T09:22:07.482Z,101462.09
2022-12-25T09:24:36.055Z,101464.44
2022-12-25T09:27:05.070Z,101459.59
2022-12-25T09:29:34.214Z,101459.63
2022-12-25T09:32:02.041Z,101453.63
2022-12-25T09:34:31.500Z,101462.44
2022-12-25T09:37:01.082Z,101459.84
2022-12-25T09:39:29.091Z,101451.44
2022-12-25T09:42:27.155Z,101455.63
2022-12-25T09:45:11.987Z,101456.59
2022-12-25T09:47:44.605Z,101457.19
2022-12-25T09:50:20.132Z,101449.56
2022-12-25T09:53:16.292Z,101454.38
2022-12-25T09:56:08.083Z,101457.00
2022-12-25T09:58:36.002Z,101455.38
2022-12-25T10:01:36.277Z,101444.81
2022-12-25T10:04:48.790Z,101448.41
2022-12-25T10:08:04.133Z,101445.75
2022-12-25T10:11:06.938Z,101442.69
2022-12-25T10:13:57.215Z,101439.63
2022-12-25T10:16:50.340Z,101436.06
2022-12-25T10:19:44.774Z,101435.97
2022-12-25T10:22:41.449Z,101427.44
2022-12-25T10:28:20.509Z,101429.91
2022-12-25T10:30:52.873Z,101434.44
2022-12-25T10:33:21.927Z,101428.28
2022-12-25T10:35:50.730Z,101427.22
2022-12-25T10:38:20.113Z,101419.59
2022-12-25T10:41:05.579Z,101432.31
2022-12-25T10:44:03.487Z,101435.97
2022-12-25T10:46:34.298Z,101428.31
2022-12-25T10:49:03.748Z,101424.78
2022-12-25T10:51:40.252Z,101424.69
2022-12-25T10:54:25.569Z,101431.72
2022-12-25T10:57:03.842Z,101434.66
2022-12-25T10:59:49.018Z,101427.88
2022-12-25T11:02:42.666Z,101435.72
2022-12-25T11:05:25.628Z,101437.66
2022-12-25T11:07:55.573Z,101436.50
2022-12-25T11:10:51.432Z,101435.03
2022-12-25T11:13:24.952Z,101438.75
2022-12-25T11:16:26.267Z,101439.63
2022-12-25T11:18:56.544Z,101450.50
2022-12-25T11:21:35.098Z,101450.31
2022-12-25T11:24:07.280Z,101441.69
2022-12-25T11:26:55.501Z,101452.31
2022-12-25T11:29:51.372Z,101449.59
2022-12-25T11:32:38.151Z,101459.03
2022-12-25T11:35:13.946Z,101460.47
2022-12-25T11:37:50.589Z,101460.31
2022-12-25T11:40:46.554Z,101460.16
2022-12-25T11:43:29.273Z,101460.25
2022-12-25T11:46:09.424Z,101465.69
2022-12-25T11:48:47.893Z,101456.44
2022-12-25T11:51:21.623Z,101458.28
2022-12-25T11:53:56.568Z,101462.53
2022-12-25T11:56:31.241Z,101459.72
2022-12-25T11:59:18.127Z,101458.81
2022-12-25T12:02:23.330Z,101465.84
2022-12-25T12:05:17.721Z,101463.19
2022-12-25T12:08:01.630Z,101452.94
2022-12-25T12:10:55.651Z,101457.28
2022-12-25T12:14:00.367Z,101454.91
2022-12-25T12:16:30.245Z,101461.81
2022-12-25T12:19:01.536Z,101459.47
2022-12-25T12:21:31.327Z,101466.19
2022-12-25T12:24:14.000Z,101467.47
2022-12-25T12:26:59.211Z,101468.34
2022-12-25T12:29:39.904Z,101471.84
2022-12-25T12:32:37.274Z,101464.22
2022-12-25T12:35:26.032Z,101467.03
2022-12-25T12:38:08.248Z,101462.13
2022-12-25T12:40:41.995Z,101463.09
2022-12-25T12:44:01.963Z,101467.63
2022-12-25T12:46:37.488Z,101476.88
2022-12-25T12:49:17.008Z,101471.25
2022-12-25T12:51:45.659Z,101472.63
2022-12-25T12:54:32.977Z,101471.50
2022-12-25T12:57:07.644Z,101470.72
2022-12-25T13:00:10.148Z,101477.94
2022-12-25T13:03:23.413Z,101480.03
2022-12-25T13:06:01.598Z,101485.81
2022-12-25T13:09:06.933Z,101484.38
2022-12-25T13:11:42.049Z,101487.50
2022-12-25T13:14:21.560Z,101498.72
2022-12-25T13:16:53.766Z,101490.88
2022-12-25T13:19:27.747Z,101495.38
2022-12-25T13:22:02.061Z,101492.34
2022-12-25T13:24:37.051Z,101499.78
2022-12-25T13:27:30.442Z,101497.53
2022-12-25T13:30:00.456Z,101502.47
2022-12-25T13:32:33.631Z,101501.38
2022-12-25T13:35:03.159Z,101506.09
2022-12-25T13:37:31.913Z,101502.84
2022-12-25T16:51:28.592Z,101594.84
2022-12-25T16:54:22.526Z,101594.97
2022-12-25T16:56:52.388Z,101598.66
2022-12-25T16:59:31.797Z,101594.66
2022-12-25T22:03:04.164Z,101710.75
2022-12-25T22:21:55.311Z,101719.34
